sensor_id;sensor_type;location;lat;lon;timestamp;temperature;humidity
27376;DHT22;14844;51.302;6.354;2023-04-25T00:01:46;6.00;99.90
27376;DHT22;14844;51.302;6.354;2023-04-25T00:04:11;6.10;99.90
27376;DHT22;14844;51.302;6.354;2023-04-25T00:06:37;6.10;99.90
27376;DHT22;14844;51.302;6.354;2023-04-25T00:09:03;6.20;99.90
27376;DHT22;14844;51.302;6.354;2023-04-25T00:11:29;6.20;99.90
27376;DHT22;14844;51.302;6.354;2023-04-25T00:13:56;6.30;99.90
27376;DHT22;14844;51.302;6.354;2023-04-25T00:16:22;6.30;99.90
27376;DHT22;14844;51.302;6.354;2023-04-25T00:18:49;6.30;99.90
27376;DHT22;14844;51.302;6.354;2023-04-25T00:21:17;6.30;99.90
27376;DHT22;14844;51.302;6.354;2023-04-25T00:23:43;6.30;99.90
27376;DHT22;14844;51.302;6.354;2023-04-25T00:26:10;6.40;99.90
27376;DHT22;14844;51.302;6.354;2023-04-25T00:28:36;6.40;99.90
27376;DHT22;14844;51.302;6.354;2023-04-25T00:31:01;6.40;99.90
27376;DHT22;14844;51.302;6.354;2023-04-25T00:33:27;6.40;99.90
27376;DHT22;14844;51.302;6.354;2023-04-25T00:35:52;6.40;99.90
27376;DHT22;14844;51.302;6.354;2023-04-25T00:38:18;6.40;99.90
27376;DHT22;14844;51.302;6.354;2023-04-25T00:40:43;6.40;99.90
27376;DHT22;14844;51.302;6.354;2023-04-25T00:43:09;6.50;99.90
27376;DHT22;14844;51.302;6.354;2023-04-25T00:45:34;6.40;99.90
27376;DHT22;14844;51.302;6.354;2023-04-25T00:48:02;6.50;99.90
27376;DHT22;14844;51.302;6.354;2023-04-25T00:50:29;6.50;99.90
27376;DHT22;14844;51.302;6.354;2023-04-25T00:52:54;6.50;99.90
27376;DHT22;14844;51.302;6.354;2023-04-25T00:55:20;6.60;99.90
27376;DHT22;14844;51.302;6.354;2023-04-25T00:57:46;6.60;99.90
27376;DHT22;14844;51.302;6.354;2023-04-25T01:00:12;6.60;99.90
27376;DHT22;14844;51.302;6.354;2023-04-25T01:02:40;6.60;99.90
27376;DHT22;14844;51.302;6.354;2023-04-25T01:05:05;6.70;99.90
27376;DHT22;14844;51.302;6.354;2023-04-25T01:07:31;6.70;99.90
27376;DHT22;14844;51.302;6.354;2023-04-25T01:09:56;6.70;99.90
27376;DHT22;14844;51.302;6.354;2023-04-25T01:12:22;6.80;99.90
27376;DHT22;14844;51.302;6.354;2023-04-25T01:14:48;6.80;99.90
27376;DHT22;14844;51.302;6.354;2023-04-25T01:17:13;6.80;99.90
27376;DHT22;14844;51.302;6.354;2023-04-25T01:19:40;6.80;99.90
27376;DHT22;14844;51.302;6.354;2023-04-25T01:22:05;6.80;99.90
27376;DHT22;14844;51.302;6.354;2023-04-25T01:24:32;6.80;99.90
27376;DHT22;14844;51.302;6.354;2023-04-25T01:26:58;6.80;99.90
27376;DHT22;14844;51.302;6.354;2023-04-25T01:29:24;6.80;99.90
27376;DHT22;14844;51.302;6.354;2023-04-25T01:31:50;6.80;99.90
27376;DHT22;14844;51.302;6.354;2023-04-25T01:34:16;6.80;99.90
27376;DHT22;14844;51.302;6.354;2023-04-25T01:36:41;6.80;99.90
27376;DHT22;14844;51.302;6.354;2023-04-25T01:39:07;6.80;99.90
27376;DHT22;14844;51.302;6.354;2023-04-25T01:41:33;6.80;99.90
27376;DHT22;14844;51.302;6.354;2023-04-25T01:43:59;6.80;99.90
27376;DHT22;14844;51.302;6.354;2023-04-25T01:46:25;6.80;99.90
27376;DHT22;14844;51.302;6.354;2023-04-25T01:48:51;6.80;99.90
27376;DHT22;14844;51.302;6.354;2023-04-25T01:51:16;6.80;99.90
27376;DHT22;14844;51.302;6.354;2023-04-25T01:53:42;6.80;99.90
27376;DHT22;14844;51.302;6.354;2023-04-25T01:56:08;6.90;99.90
27376;DHT22;14844;51.302;6.354;2023-04-25T01:58:34;6.80;99.90
27376;DHT22;14844;51.302;6.354;2023-04-25T02:00:59;6.80;99.90
27376;DHT22;14844;51.302;6.354;2023-04-25T02:03:25;6.80;99.90
27376;DHT22;14844;51.302;6.354;2023-04-25T02:05:50;6.80;99.90
27376;DHT22;14844;51.302;6.354;2023-04-25T02:08:16;6.70;99.90
27376;DHT22;14844;51.302;6.354;2023-04-25T02:10:42;6.70;99.90
27376;DHT22;14844;51.302;6.354;2023-04-25T02:13:07;6.70;99.90
27376;DHT22;14844;51.302;6.354;2023-04-25T02:15:33;6.70;99.90
27376;DHT22;14844;51.302;6.354;2023-04-25T02:17:58;6.60;99.90
27376;DHT22;14844;51.302;6.354;2023-04-25T02:20:25;6.50;99.90
27376;DHT22;14844;51.302;6.354;2023-04-25T02:22:51;6.50;99.90
27376;DHT22;14844;51.302;6.354;2023-04-25T02:25:17;6.40;99.90
27376;DHT22;14844;51.302;6.354;2023-04-25T02:27:42;6.30;99.90
27376;DHT22;14844;51.302;6.354;2023-04-25T02:30:08;6.20;99.90
27376;DHT22;14844;51.302;6.354;2023-04-25T02:32:34;6.10;99.90
27376;DHT22;14844;51.302;6.354;2023-04-25T02:35:00;6.10;99.90
27376;DHT22;14844;51.302;6.354;2023-04-25T02:37:32;6.10;99.90
27376;DHT22;14844;51.302;6.354;2023-04-25T02:39:58;6.00;99.90
27376;DHT22;14844;51.302;6.354;2023-04-25T02:42:23;6.00;99.90
27376;DHT22;14844;51.302;6.354;2023-04-25T02:44:49;6.00;99.90
27376;DHT22;14844;51.302;6.354;2023-04-25T02:47:15;5.90;99.90
27376;DHT22;14844;51.302;6.354;2023-04-25T02:49:40;5.90;99.90
27376;DHT22;14844;51.302;6.354;2023-04-25T02:52:06;5.90;99.90
27376;DHT22;14844;51.302;6.354;2023-04-25T02:54:31;5.80;99.90
27376;DHT22;14844;51.302;6.354;2023-04-25T02:56:57;5.80;99.90
27376;DHT22;14844;51.302;6.354;2023-04-25T02:59:22;5.80;99.90
27376;DHT22;14844;51.302;6.354;2023-04-25T03:01:48;5.80;99.90
27376;DHT22;14844;51.302;6.354;2023-04-25T03:04:13;5.80;99.90
27376;DHT22;14844;51.302;6.354;2023-04-25T03:06:39;5.70;99.90
27376;DHT22;14844;51.302;6.354;2023-04-25T03:09:05;5.70;99.90
27376;DHT22;14844;51.302;6.354;2023-04-25T03:11:30;5.70;99.90
27376;DHT22;14844;51.302;6.354;2023-04-25T03:13:56;5.60;99.90
27376;DHT22;14844;51.302;6.354;2023-04-25T03:16:21;5.60;99.90
27376;DHT22;14844;51.302;6.354;2023-04-25T03:18:47;5.60;99.90
27376;DHT22;14844;51.302;6.354;2023-04-25T03:21:12;5.60;99.90
27376;DHT22;14844;51.302;6.354;2023-04-25T03:23:38;5.60;99.90
27376;DHT22;14844;51.302;6.354;2023-04-25T03:26:03;5.60;99.90
27376;DHT22;14844;51.302;6.354;2023-04-25T03:28:31;5.60;99.90
27376;DHT22;14844;51.302;6.354;2023-04-25T03:30:57;5.70;99.90
27376;DHT22;14844;51.302;6.354;2023-04-25T03:33:22;5.60;99.90
27376;DHT22;14844;51.302;6.354;2023-04-25T03:35:48;5.60;99.90
27376;DHT22;14844;51.302;6.354;2023-04-25T03:38:15;5.60;99.90
27376;DHT22;14844;51.302;6.354;2023-04-25T03:40:40;5.50;99.90
27376;DHT22;14844;51.302;6.354;2023-04-25T03:43:06;5.50;99.90
27376;DHT22;14844;51.302;6.354;2023-04-25T03:45:32;5.40;99.90
27376;DHT22;14844;51.302;6.354;2023-04-25T03:47:57;5.40;99.90
27376;DHT22;14844;51.302;6.354;2023-04-25T03:50:23;5.40;99.90
27376;DHT22;14844;51.302;6.354;2023-04-25T03:52:48;5.40;99.90
27376;DHT22;14844;51.302;6.354;2023-04-25T03:55:15;5.40;99.90
27376;DHT22;14844;51.302;6.354;2023-04-25T03:57:40;5.40;99.90
27376;DHT22;14844;51.302;6.354;2023-04-25T04:00:06;5.40;99.90
27376;DHT22;14844;51.302;6.354;2023-04-25T04:02:31;5.30;99.90
27376;DHT22;14844;51.302;6.354;2023-04-25T04:04:58;5.30;99.90
27376;DHT22;14844;51.302;6.354;2023-04-25T04:07:23;5.30;99.90
27376;DHT22;14844;51.302;6.354;2023-04-25T04:09:49;5.30;99.90
27376;DHT22;14844;51.302;6.354;2023-04-25T04:12:14;5.20;99.90
27376;DHT22;14844;51.302;6.354;2023-04-25T04:14:40;5.20;99.90
27376;DHT22;14844;51.302;6.354;2023-04-25T04:17:05;5.20;99.90
27376;DHT22;14844;51.302;6.354;2023-04-25T04:19:31;5.20;99.90
27376;DHT22;14844;51.302;6.354;2023-04-25T04:21:56;5.10;99.90
27376;DHT22;14844;51.302;6.354;2023-04-25T04:24:22;5.10;99.90
27376;DHT22;14844;51.302;6.354;2023-04-25T04:26:47;5.10;99.90
27376;DHT22;14844;51.302;6.354;2023-04-25T04:29:14;5.10;99.90
27376;DHT22;14844;51.302;6.354;2023-04-25T04:31:47;5.20;99.90
27376;DHT22;14844;51.302;6.354;2023-04-25T04:34:12;5.20;99.90
27376;DHT22;14844;51.302;6.354;2023-04-25T04:36:38;5.20;99.90
27376;DHT22;14844;51.302;6.354;2023-04-25T04:39:05;5.20;99.90
27376;DHT22;14844;51.302;6.354;2023-04-25T04:41:31;5.20;99.90
27376;DHT22;14844;51.302;6.354;2023-04-25T04:43:57;5.20;99.90
27376;DHT22;14844;51.302;6.354;2023-04-25T04:46:22;5.20;99.90
27376;DHT22;14844;51.302;6.354;2023-04-25T04:48:49;5.20;99.90
27376;DHT22;14844;51.302;6.354;2023-04-25T04:51:15;5.30;99.90
27376;DHT22;14844;51.302;6.354;2023-04-25T04:53:40;5.30;99.90
27376;DHT22;14844;51.302;6.354;2023-04-25T04:56:06;5.40;99.90
27376;DHT22;14844;51.302;6.354;2023-04-25T04:58:31;5.40;99.90
27376;DHT22;14844;51.302;6.354;2023-04-25T05:00:57;5.50;99.90
27376;DHT22;14844;51.302;6.354;2023-04-25T05:03:24;5.60;99.90
27376;DHT22;14844;51.302;6.354;2023-04-25T05:05:50;5.70;99.90
27376;DHT22;14844;51.302;6.354;2023-04-25T05:08:15;5.80;99.90
27376;DHT22;14844;51.302;6.354;2023-04-25T05:10:41;5.90;99.90
27376;DHT22;14844;51.302;6.354;2023-04-25T05:13:07;6.00;99.90
27376;DHT22;14844;51.302;6.354;2023-04-25T05:15:32;6.10;99.90
27376;DHT22;14844;51.302;6.354;2023-04-25T05:17:58;6.10;99.90
27376;DHT22;14844;51.302;6.354;2023-04-25T05:20:23;6.20;99.90
27376;DHT22;14844;51.302;6.354;2023-04-25T05:22:49;6.20;99.90
27376;DHT22;14844;51.302;6.354;2023-04-25T05:25:14;6.20;99.90
27376;DHT22;14844;51.302;6.354;2023-04-25T05:27:40;6.30;99.90
27376;DHT22;14844;51.302;6.354;2023-04-25T05:30:05;6.40;99.90
27376;DHT22;14844;51.302;6.354;2023-04-25T05:32:31;6.50;99.90
27376;DHT22;14844;51.302;6.354;2023-04-25T05:34:56;6.60;99.90
27376;DHT22;14844;51.302;6.354;2023-04-25T05:37:22;6.70;99.90
27376;DHT22;14844;51.302;6.354;2023-04-25T05:39:47;6.90;99.90
27376;DHT22;14844;51.302;6.354;2023-04-25T05:42:13;7.00;99.90
27376;DHT22;14844;51.302;6.354;2023-04-25T05:44:39;7.10;99.90
27376;DHT22;14844;51.302;6.354;2023-04-25T05:47:04;7.20;99.90
27376;DHT22;14844;51.302;6.354;2023-04-25T05:49:30;7.30;99.90
27376;DHT22;14844;51.302;6.354;2023-04-25T05:51:55;7.20;99.90
27376;DHT22;14844;51.302;6.354;2023-04-25T05:54:21;7.20;99.90
27376;DHT22;14844;51.302;6.354;2023-04-25T05:56:46;7.20;99.90
27376;DHT22;14844;51.302;6.354;2023-04-25T05:59:12;7.20;99.90
27376;DHT22;14844;51.302;6.354;2023-04-25T06:01:37;7.10;99.90
27376;DHT22;14844;51.302;6.354;2023-04-25T06:04:03;7.10;99.90
27376;DHT22;14844;51.302;6.354;2023-04-25T06:06:28;7.10;99.90
27376;DHT22;14844;51.302;6.354;2023-04-25T06:08:54;7.10;99.90
27376;DHT22;14844;51.302;6.354;2023-04-25T06:11:20;7.20;99.90
27376;DHT22;14844;51.302;6.354;2023-04-25T06:13:46;7.10;99.90
27376;DHT22;14844;51.302;6.354;2023-04-25T06:16:11;7.10;99.90
27376;DHT22;14844;51.302;6.354;2023-04-25T06:18:37;7.00;99.90
27376;DHT22;14844;51.302;6.354;2023-04-25T06:21:02;6.90;99.90
27376;DHT22;14844;51.302;6.354;2023-04-25T06:23:28;6.90;99.90
27376;DHT22;14844;51.302;6.354;2023-04-25T06:25:53;6.80;99.90
27376;DHT22;14844;51.302;6.354;2023-04-25T06:28:19;6.80;99.90
27376;DHT22;14844;51.302;6.354;2023-04-25T06:30:44;6.80;99.90
27376;DHT22;14844;51.302;6.354;2023-04-25T06:33:10;7.00;99.90
27376;DHT22;14844;51.302;6.354;2023-04-25T06:35:35;7.10;99.90
27376;DHT22;14844;51.302;6.354;2023-04-25T06:38:01;7.20;99.90
27376;DHT22;14844;51.302;6.354;2023-04-25T06:40:26;7.30;99.90
27376;DHT22;14844;51.302;6.354;2023-04-25T06:42:52;7.40;99.90
27376;DHT22;14844;51.302;6.354;2023-04-25T06:45:17;7.50;99.90
27376;DHT22;14844;51.302;6.354;2023-04-25T06:47:43;7.60;99.90
27376;DHT22;14844;51.302;6.354;2023-04-25T06:50:08;7.80;99.90
27376;DHT22;14844;51.302;6.354;2023-04-25T06:52:34;7.90;99.90
27376;DHT22;14844;51.302;6.354;2023-04-25T06:54:59;7.80;99.90
27376;DHT22;14844;51.302;6.354;2023-04-25T06:57:25;7.90;99.90
27376;DHT22;14844;51.302;6.354;2023-04-25T06:59:51;8.10;99.90
27376;DHT22;14844;51.302;6.354;2023-04-25T07:02:16;8.30;99.90
27376;DHT22;14844;51.302;6.354;2023-04-25T07:04:42;8.40;99.90
27376;DHT22;14844;51.302;6.354;2023-04-25T07:07:07;8.30;99.90
27376;DHT22;14844;51.302;6.354;2023-04-25T07:09:32;8.20;99.90
27376;DHT22;14844;51.302;6.354;2023-04-25T07:11:59;8.20;99.90
27376;DHT22;14844;51.302;6.354;2023-04-25T07:14:26;8.50;99.90
27376;DHT22;14844;51.302;6.354;2023-04-25T07:16:51;8.70;99.90
27376;DHT22;14844;51.302;6.354;2023-04-25T07:19:17;8.80;99.90
27376;DHT22;14844;51.302;6.354;2023-04-25T07:21:42;8.80;99.90
27376;DHT22;14844;51.302;6.354;2023-04-25T07:24:08;8.90;99.90
27376;DHT22;14844;51.302;6.354;2023-04-25T07:26:33;9.00;99.90
27376;DHT22;14844;51.302;6.354;2023-04-25T07:28:59;8.90;99.90
27376;DHT22;14844;51.302;6.354;2023-04-25T07:31:24;9.20;99.90
27376;DHT22;14844;51.302;6.354;2023-04-25T07:33:50;9.40;99.90
27376;DHT22;14844;51.302;6.354;2023-04-25T07:36:15;9.60;99.90
27376;DHT22;14844;51.302;6.354;2023-04-25T07:38:41;9.60;99.90
27376;DHT22;14844;51.302;6.354;2023-04-25T07:41:06;9.60;99.90
27376;DHT22;14844;51.302;6.354;2023-04-25T07:43:32;9.70;99.90
27376;DHT22;14844;51.302;6.354;2023-04-25T07:45:57;9.60;99.90
27376;DHT22;14844;51.302;6.354;2023-04-25T07:48:23;9.70;99.90
27376;DHT22;14844;51.302;6.354;2023-04-25T07:50:48;9.70;99.90
27376;DHT22;14844;51.302;6.354;2023-04-25T07:53:14;9.80;99.90
27376;DHT22;14844;51.302;6.354;2023-04-25T07:55:39;9.80;99.90
27376;DHT22;14844;51.302;6.354;2023-04-25T07:58:08;10.00;99.90
27376;DHT22;14844;51.302;6.354;2023-04-25T08:00:34;10.30;99.90
27376;DHT22;14844;51.302;6.354;2023-04-25T08:03:00;10.20;99.90
27376;DHT22;14844;51.302;6.354;2023-04-25T08:05:25;10.30;99.90
27376;DHT22;14844;51.302;6.354;2023-04-25T08:07:51;10.20;99.90
27376;DHT22;14844;51.302;6.354;2023-04-25T08:10:16;10.40;99.90
27376;DHT22;14844;51.302;6.354;2023-04-25T08:12:42;10.60;99.90
27376;DHT22;14844;51.302;6.354;2023-04-25T08:15:07;10.70;99.90
27376;DHT22;14844;51.302;6.354;2023-04-25T08:17:33;10.60;99.90
27376;DHT22;14844;51.302;6.354;2023-04-25T08:19:58;10.50;99.90
27376;DHT22;14844;51.302;6.354;2023-04-25T08:22:24;10.70;99.90
27376;DHT22;14844;51.302;6.354;2023-04-25T08:24:49;10.50;99.90
27376;DHT22;14844;51.302;6.354;2023-04-25T08:27:15;10.40;99.90
27376;DHT22;14844;51.302;6.354;2023-04-25T08:29:41;10.40;99.90
27376;DHT22;14844;51.302;6.354;2023-04-25T08:32:06;10.60;99.90
27376;DHT22;14844;51.302;6.354;2023-04-25T08:34:32;10.80;99.90
27376;DHT22;14844;51.302;6.354;2023-04-25T08:36:57;10.60;99.90
27376;DHT22;14844;51.302;6.354;2023-04-25T08:39:23;10.50;99.90
27376;DHT22;14844;51.302;6.354;2023-04-25T08:41:48;10.50;99.90
27376;DHT22;14844;51.302;6.354;2023-04-25T08:44:14;10.70;99.90
27376;DHT22;14844;51.302;6.354;2023-04-25T08:46:40;11.00;99.90
27376;DHT22;14844;51.302;6.354;2023-04-25T08:49:06;11.10;99.90
27376;DHT22;14844;51.302;6.354;2023-04-25T08:51:32;11.20;99.90
27376;DHT22;14844;51.302;6.354;2023-04-25T08:54:04;11.30;99.90
27376;DHT22;14844;51.302;6.354;2023-04-25T08:56:33;11.10;99.90
27376;DHT22;14844;51.302;6.354;2023-04-25T08:59:00;10.80;99.90
27376;DHT22;14844;51.302;6.354;2023-04-25T09:01:26;11.00;99.90
27376;DHT22;14844;51.302;6.354;2023-04-25T09:03:52;10.80;99.90
27376;DHT22;14844;51.302;6.354;2023-04-25T09:06:17;10.80;99.90
27376;DHT22;14844;51.302;6.354;2023-04-25T09:08:43;10.60;99.90
27376;DHT22;14844;51.302;6.354;2023-04-25T09:11:08;10.50;99.90
27376;DHT22;14844;51.302;6.354;2023-04-25T09:13:34;10.50;99.90
27376;DHT22;14844;51.302;6.354;2023-04-25T09:15:59;10.90;99.90
27376;DHT22;14844;51.302;6.354;2023-04-25T09:18:29;11.20;99.90
27376;DHT22;14844;51.302;6.354;2023-04-25T09:20:55;11.70;99.90
27376;DHT22;14844;51.302;6.354;2023-04-25T09:23:21;12.00;99.90
27376;DHT22;14844;51.302;6.354;2023-04-25T09:25:51;12.00;99.90
27376;DHT22;14844;51.302;6.354;2023-04-25T09:28:16;12.10;99.90
27376;DHT22;14844;51.302;6.354;2023-04-25T09:30:47;11.60;99.90
27376;DHT22;14844;51.302;6.354;2023-04-25T09:33:13;11.20;99.90
27376;DHT22;14844;51.302;6.354;2023-04-25T09:35:39;11.20;99.90
27376;DHT22;14844;51.302;6.354;2023-04-25T09:38:09;11.30;99.90
27376;DHT22;14844;51.302;6.354;2023-04-25T09:40:38;11.30;99.90
27376;DHT22;14844;51.302;6.354;2023-04-25T09:43:08;11.20;99.90
27376;DHT22;14844;51.302;6.354;2023-04-25T09:45:38;11.10;99.90
27376;DHT22;14844;51.302;6.354;2023-04-25T09:48:06;10.90;99.90
27376;DHT22;14844;51.302;6.354;2023-04-25T09:50:32;10.90;99.90
27376;DHT22;14844;51.302;6.354;2023-04-25T09:53:04;11.00;99.90
27376;DHT22;14844;51.302;6.354;2023-04-25T09:55:32;11.20;99.90
27376;DHT22;14844;51.302;6.354;2023-04-25T09:57:59;11.20;99.90
27376;DHT22;14844;51.302;6.354;2023-04-25T10:00:27;10.90;99.90
27376;DHT22;14844;51.302;6.354;2023-04-25T10:02:53;10.70;99.90
27376;DHT22;14844;51.302;6.354;2023-04-25T10:05:19;10.90;99.90
27376;DHT22;14844;51.302;6.354;2023-04-25T10:07:45;11.00;99.90
27376;DHT22;14844;51.302;6.354;2023-04-25T10:10:11;11.00;99.90
27376;DHT22;14844;51.302;6.354;2023-04-25T10:12:37;11.00;99.90
27376;DHT22;14844;51.302;6.354;2023-04-25T10:15:05;11.00;99.90
27376;DHT22;14844;51.302;6.354;2023-04-25T10:17:32;11.30;99.90
27376;DHT22;14844;51.302;6.354;2023-04-25T10:19:58;11.90;99.90
27376;DHT22;14844;51.302;6.354;2023-04-25T10:22:29;12.00;99.90
27376;DHT22;14844;51.302;6.354;2023-04-25T10:24:56;12.00;99.90
27376;DHT22;14844;51.302;6.354;2023-04-25T10:27:22;12.10;99.90
27376;DHT22;14844;51.302;6.354;2023-04-25T10:29:59;12.30;99.90
27376;DHT22;14844;51.302;6.354;2023-04-25T10:32:25;11.90;99.90
27376;DHT22;14844;51.302;6.354;2023-04-25T10:34:50;11.50;99.90
27376;DHT22;14844;51.302;6.354;2023-04-25T10:37:16;11.30;99.90
27376;DHT22;14844;51.302;6.354;2023-04-25T10:39:44;11.30;99.90
27376;DHT22;14844;51.302;6.354;2023-04-25T10:42:10;11.40;99.90
27376;DHT22;14844;51.302;6.354;2023-04-25T10:44:37;11.60;99.90
27376;DHT22;14844;51.302;6.354;2023-04-25T10:47:02;11.70;99.90
27376;DHT22;14844;51.302;6.354;2023-04-25T10:49:34;12.10;99.90
27376;DHT22;14844;51.302;6.354;2023-04-25T10:55:02;13.00;99.90
27376;DHT22;14844;51.302;6.354;2023-04-25T10:57:29;12.50;99.90
27376;DHT22;14844;51.302;6.354;2023-04-25T11:02:30;12.10;99.90
27376;DHT22;14844;51.302;6.354;2023-04-25T11:04:55;11.80;99.90
27376;DHT22;14844;51.302;6.354;2023-04-25T11:07:37;11.30;99.90
27376;DHT22;14844;51.302;6.354;2023-04-25T11:10:03;10.90;99.90
27376;DHT22;14844;51.302;6.354;2023-04-25T11:12:30;10.40;99.90
27376;DHT22;14844;51.302;6.354;2023-04-25T11:14:59;10.10;99.90
27376;DHT22;14844;51.302;6.354;2023-04-25T11:17:26;9.70;99.90
27376;DHT22;14844;51.302;6.354;2023-04-25T11:19:51;9.30;99.90
27376;DHT22;14844;51.302;6.354;2023-04-25T11:22:17;8.90;99.90
27376;DHT22;14844;51.302;6.354;2023-04-25T11:24:42;8.80;99.90
27376;DHT22;14844;51.302;6.354;2023-04-25T11:27:08;8.90;99.90
27376;DHT22;14844;51.302;6.354;2023-04-25T11:29:34;9.10;99.90
27376;DHT22;14844;51.302;6.354;2023-04-25T11:32:00;9.20;99.90
27376;DHT22;14844;51.302;6.354;2023-04-25T11:34:29;9.20;99.90
27376;DHT22;14844;51.302;6.354;2023-04-25T11:36:56;9.20;99.90
27376;DHT22;14844;51.302;6.354;2023-04-25T11:39:21;9.20;99.90
27376;DHT22;14844;51.302;6.354;2023-04-25T11:41:47;9.40;99.90
27376;DHT22;14844;51.302;6.354;2023-04-25T11:44:15;9.50;99.90
27376;DHT22;14844;51.302;6.354;2023-04-25T11:46:40;9.70;99.90
27376;DHT22;14844;51.302;6.354;2023-04-25T11:49:07;10.00;99.90
27376;DHT22;14844;51.302;6.354;2023-04-25T11:51:42;10.30;99.90
27376;DHT22;14844;51.302;6.354;2023-04-25T11:54:08;10.70;99.90
27376;DHT22;14844;51.302;6.354;2023-04-25T11:56:34;10.80;99.90
27376;DHT22;14844;51.302;6.354;2023-04-25T11:59:00;10.90;99.90
27376;DHT22;14844;51.302;6.354;2023-04-25T12:01:33;11.30;99.90
27376;DHT22;14844;51.302;6.354;2023-04-25T12:04:09;11.80;99.90
27376;DHT22;14844;51.302;6.354;2023-04-25T12:06:37;11.90;99.90
27376;DHT22;14844;51.302;6.354;2023-04-25T12:09:04;12.00;99.90
27376;DHT22;14844;51.302;6.354;2023-04-25T12:11:30;12.00;99.90
27376;DHT22;14844;51.302;6.354;2023-04-25T12:14:01;12.20;99.00
27376;DHT22;14844;51.302;6.354;2023-04-25T12:16:26;12.30;98.40
27376;DHT22;14844;51.302;6.354;2023-04-25T12:18:52;12.70;98.20
27376;DHT22;14844;51.302;6.354;2023-04-25T12:21:19;12.80;93.90
27376;DHT22;14844;51.302;6.354;2023-04-25T12:23:45;13.10;96.60
27376;DHT22;14844;51.302;6.354;2023-04-25T12:26:10;12.90;99.90
27376;DHT22;14844;51.302;6.354;2023-04-25T12:28:36;12.50;99.90
27376;DHT22;14844;51.302;6.354;2023-04-25T12:31:02;12.10;99.90
27376;DHT22;14844;51.302;6.354;2023-04-25T12:33:30;11.60;99.90
27376;DHT22;14844;51.302;6.354;2023-04-25T12:35:55;11.30;99.90
27376;DHT22;14844;51.302;6.354;2023-04-25T12:38:25;11.10;99.90
27376;DHT22;14844;51.302;6.354;2023-04-25T12:40:51;10.80;99.90
27376;DHT22;14844;51.302;6.354;2023-04-25T12:43:16;10.50;98.80
27376;DHT22;14844;51.302;6.354;2023-04-25T12:45:43;10.50;99.40
27376;DHT22;14844;51.302;6.354;2023-04-25T12:48:08;10.60;99.90
27376;DHT22;14844;51.302;6.354;2023-04-25T12:50:34;10.50;99.90
27376;DHT22;14844;51.302;6.354;2023-04-25T12:53:00;10.30;99.90
27376;DHT22;14844;51.302;6.354;2023-04-25T12:55:25;10.10;99.90
27376;DHT22;14844;51.302;6.354;2023-04-25T12:57:51;10.00;99.90
27376;DHT22;14844;51.302;6.354;2023-04-25T13:00:16;10.00;99.90
27376;DHT22;14844;51.302;6.354;2023-04-25T13:02:45;10.00;99.90
27376;DHT22;14844;51.302;6.354;2023-04-25T13:05:12;9.90;99.90
27376;DHT22;14844;51.302;6.354;2023-04-25T13:07:37;10.10;99.90
27376;DHT22;14844;51.302;6.354;2023-04-25T13:10:03;10.30;99.90
27376;DHT22;14844;51.302;6.354;2023-04-25T13:12:29;10.40;99.90
27376;DHT22;14844;51.302;6.354;2023-04-25T13:14:54;10.40;99.90
27376;DHT22;14844;51.302;6.354;2023-04-25T13:17:20;10.40;99.90
27376;DHT22;14844;51.302;6.354;2023-04-25T13:19:45;10.40;99.90
27376;DHT22;14844;51.302;6.354;2023-04-25T13:22:10;10.40;99.90
27376;DHT22;14844;51.302;6.354;2023-04-25T13:24:36;10.40;99.90
27376;DHT22;14844;51.302;6.354;2023-04-25T13:27:01;10.40;99.90
27376;DHT22;14844;51.302;6.354;2023-04-25T13:29:27;10.50;99.90
27376;DHT22;14844;51.302;6.354;2023-04-25T13:31:52;10.90;99.90
27376;DHT22;14844;51.302;6.354;2023-04-25T13:34:18;11.00;99.90
27376;DHT22;14844;51.302;6.354;2023-04-25T13:36:43;11.00;99.90
27376;DHT22;14844;51.302;6.354;2023-04-25T13:39:08;11.30;99.90
27376;DHT22;14844;51.302;6.354;2023-04-25T13:41:34;11.70;99.90
27376;DHT22;14844;51.302;6.354;2023-04-25T13:44:00;11.80;99.90
27376;DHT22;14844;51.302;6.354;2023-04-25T13:46:26;11.80;99.90
27376;DHT22;14844;51.302;6.354;2023-04-25T13:48:51;12.00;99.90
27376;DHT22;14844;51.302;6.354;2023-04-25T13:51:17;12.20;99.90
27376;DHT22;14844;51.302;6.354;2023-04-25T13:53:43;12.00;99.90
27376;DHT22;14844;51.302;6.354;2023-04-25T13:56:09;11.90;99.90
27376;DHT22;14844;51.302;6.354;2023-04-25T13:58:36;11.70;99.90
27376;DHT22;14844;51.302;6.354;2023-04-25T14:01:01;11.80;99.90
27376;DHT22;14844;51.302;6.354;2023-04-25T14:03:27;11.60;99.90
27376;DHT22;14844;51.302;6.354;2023-04-25T14:05:52;11.60;99.90
27376;DHT22;14844;51.302;6.354;2023-04-25T14:08:17;11.40;99.90
27376;DHT22;14844;51.302;6.354;2023-04-25T14:10:43;11.20;99.90
27376;DHT22;14844;51.302;6.354;2023-04-25T14:13:08;11.00;99.90
27376;DHT22;14844;51.302;6.354;2023-04-25T14:15:34;10.70;99.90
27376;DHT22;14844;51.302;6.354;2023-04-25T14:18:00;10.70;99.90
27376;DHT22;14844;51.302;6.354;2023-04-25T14:20:26;10.60;99.90
27376;DHT22;14844;51.302;6.354;2023-04-25T14:22:51;10.70;99.90
27376;DHT22;14844;51.302;6.354;2023-04-25T14:25:19;11.00;99.10
27376;DHT22;14844;51.302;6.354;2023-04-25T14:27:44;11.30;98.20
27376;DHT22;14844;51.302;6.354;2023-04-25T14:30:15;11.60;99.90
27376;DHT22;14844;51.302;6.354;2023-04-25T14:32:40;11.60;98.50
27376;DHT22;14844;51.302;6.354;2023-04-25T14:35:06;11.60;97.90
27376;DHT22;14844;51.302;6.354;2023-04-25T14:37:32;11.70;98.10
27376;DHT22;14844;51.302;6.354;2023-04-25T14:39:58;11.90;97.50
27376;DHT22;14844;51.302;6.354;2023-04-25T14:42:23;11.90;96.80
27376;DHT22;14844;51.302;6.354;2023-04-25T14:44:48;11.80;99.90
27376;DHT22;14844;51.302;6.354;2023-04-25T14:47:14;11.40;99.90
27376;DHT22;14844;51.302;6.354;2023-04-25T14:49:41;11.00;99.90
27376;DHT22;14844;51.302;6.354;2023-04-25T14:52:06;10.90;99.90
27376;DHT22;14844;51.302;6.354;2023-04-25T14:54:32;11.40;99.90
27376;DHT22;14844;51.302;6.354;2023-04-25T14:56:57;11.90;99.90
27376;DHT22;14844;51.302;6.354;2023-04-25T14:59:23;12.70;99.90
27376;DHT22;14844;51.302;6.354;2023-04-25T15:01:50;13.00;98.50
27376;DHT22;14844;51.302;6.354;2023-04-25T15:04:15;13.20;99.10
27376;DHT22;14844;51.302;6.354;2023-04-25T15:06:42;13.40;97.70
27376;DHT22;14844;51.302;6.354;2023-04-25T15:09:08;13.30;98.50
27376;DHT22;14844;51.302;6.354;2023-04-25T15:11:35;13.30;98.40
27376;DHT22;14844;51.302;6.354;2023-04-25T15:14:00;12.90;98.70
27376;DHT22;14844;51.302;6.354;2023-04-25T15:16:26;13.20;96.90
27376;DHT22;14844;51.302;6.354;2023-04-25T15:18:51;13.60;98.00
27376;DHT22;14844;51.302;6.354;2023-04-25T15:21:16;13.90;96.10
27376;DHT22;14844;51.302;6.354;2023-04-25T15:23:42;14.30;95.80
27376;DHT22;14844;51.302;6.354;2023-04-25T15:26:08;14.70;95.20
27376;DHT22;14844;51.302;6.354;2023-04-25T15:28:33;14.60;95.40
27376;DHT22;14844;51.302;6.354;2023-04-25T15:30:59;14.50;95.80
27376;DHT22;14844;51.302;6.354;2023-04-25T15:33:24;14.20;94.10
27376;DHT22;14844;51.302;6.354;2023-04-25T15:35:50;13.90;93.80
27376;DHT22;14844;51.302;6.354;2023-04-25T15:38:16;13.90;94.80